Main page
METAR-TAF:

METAR-TAF

Airports :

Sania Ramel Airport

Tétouan, Morocco

latitude: 35-35N, longitude: 005-20W, elevation: 10 m

Current weather observation

The report was made 1 hour and 5 minutes ago, at 05:00 UTC
Wind 6 kt from the East/Northeast
Temperature 19°C
Humidity 88%
Pressure 1023 hPa

METAR: GMTN 240500Z AUTO 06006KT /// 19/17 Q1023

Time: 07:05 (06:05 UTC)


TAF: missing

Weather observations and forecasts of more than 4000 airports (METAR and TAF reports).

The available stations are represented by yellow and red dots on the map.

Hover mouse over dot to see the name of the station.

Then click to see weather observations and forecasts.

To change the map : click on the green buttons with a black cross to zoom in, on the green button with a dash to zoom out, or on the green arrows for adjacent maps.


METAR-TAF: